sensor_id;sensor_type;location;lat;lon;timestamp;pressure;altitude;pressure_sealevel;temperature;humidity
1832;BME280;1680;48.106;11.708;2023-04-26T00:01:00;95431.06;;;7.66;100.00
1832;BME280;1680;48.106;11.708;2023-04-26T00:03:29;95387.06;;;7.26;100.00
1832;BME280;1680;48.106;11.708;2023-04-26T00:05:59;95436.47;;;7.71;100.00
1832;BME280;1680;48.106;11.708;2023-04-26T00:08:29;95425.63;;;7.74;100.00
1832;BME280;1680;48.106;11.708;2023-04-26T00:10:57;95427.47;;;7.61;100.00
1832;BME280;1680;48.106;11.708;2023-04-26T00:13:24;95424.69;;;7.62;100.00
1832;BME280;1680;48.106;11.708;2023-04-26T00:15:51;95432.09;;;7.59;100.00
1832;BME280;1680;48.106;11.708;2023-04-26T00:18:19;95430.50;;;7.51;100.00
1832;BME280;1680;48.106;11.708;2023-04-26T00:20:46;95419.47;;;7.49;100.00
1832;BME280;1680;48.106;11.708;2023-04-26T00:23:15;95419.31;;;7.44;100.00
1832;BME280;1680;48.106;11.708;2023-04-26T00:25:42;95415.09;;;7.43;100.00
1832;BME280;1680;48.106;11.708;2023-04-26T00:28:10;95418.50;;;7.44;100.00
1832;BME280;1680;48.106;11.708;2023-04-26T00:30:37;95420.66;;;7.60;100.00
1832;BME280;1680;48.106;11.708;2023-04-26T00:33:06;95422.91;;;7.50;100.00
1832;BME280;1680;48.106;11.708;2023-04-26T00:35:33;95422.47;;;7.59;100.00
1832;BME280;1680;48.106;11.708;2023-04-26T00:38:00;95422.38;;;7.78;100.00
1832;BME280;1680;48.106;11.708;2023-04-26T00:40:29;95427.13;;;7.51;100.00
1832;BME280;1680;48.106;11.708;2023-04-26T00:42:57;95420.31;;;7.43;100.00
1832;BME280;1680;48.106;11.708;2023-04-26T00:45:25;95428.34;;;7.35;100.00
1832;BME280;1680;48.106;11.708;2023-04-26T00:47:52;95354.28;;;6.86;100.00
1832;BME280;1680;48.106;11.708;2023-04-26T00:50:20;95427.56;;;7.35;100.00
1832;BME280;1680;48.106;11.708;2023-04-26T00:52:47;95422.75;;;7.32;100.00
1832;BME280;1680;48.106;11.708;2023-04-26T00:55:15;95426.38;;;7.31;100.00
1832;BME280;1680;48.106;11.708;2023-04-26T00:57:44;95442.97;;;7.43;100.00
1832;BME280;1680;48.106;11.708;2023-04-26T01:00:12;95429.47;;;7.59;100.00
1832;BME280;1680;48.106;11.708;2023-04-26T01:02:40;95429.09;;;7.55;100.00
1832;BME280;1680;48.106;11.708;2023-04-26T01:05:08;95428.88;;;7.57;100.00
1832;BME280;1680;48.106;11.708;2023-04-26T01:07:35;95421.44;;;7.67;100.00
1832;BME280;1680;48.106;11.708;2023-04-26T01:10:04;95423.50;;;7.52;100.00
1832;BME280;1680;48.106;11.708;2023-04-26T01:12:31;95435.72;;;7.51;100.00
1832;BME280;1680;48.106;11.708;2023-04-26T01:15:01;95421.94;;;7.38;100.00
1832;BME280;1680;48.106;11.708;2023-04-26T01:17:29;95425.16;;;7.40;100.00
1832;BME280;1680;48.106;11.708;2023-04-26T01:19:56;95427.75;;;7.40;100.00
1832;BME280;1680;48.106;11.708;2023-04-26T01:22:24;95427.94;;;7.45;100.00
1832;BME280;1680;48.106;11.708;2023-04-26T01:24:55;95431.50;;;7.57;100.00
1832;BME280;1680;48.106;11.708;2023-04-26T01:27:24;95431.09;;;7.60;100.00
1832;BME280;1680;48.106;11.708;2023-04-26T01:29:51;95432.38;;;7.38;100.00
1832;BME280;1680;48.106;11.708;2023-04-26T01:32:18;95396.75;;;7.06;100.00
1832;BME280;1680;48.106;11.708;2023-04-26T01:34:45;95443.56;;;7.45;100.00
1832;BME280;1680;48.106;11.708;2023-04-26T01:37:12;95438.75;;;7.42;100.00
1832;BME280;1680;48.106;11.708;2023-04-26T01:39:40;95446.03;;;7.27;100.00
1832;BME280;1680;48.106;11.708;2023-04-26T01:42:08;95444.22;;;7.34;100.00
1832;BME280;1680;48.106;11.708;2023-04-26T01:44:36;95435.19;;;7.30;100.00
1832;BME280;1680;48.106;11.708;2023-04-26T01:47:03;95437.59;;;7.38;100.00
1832;BME280;1680;48.106;11.708;2023-04-26T01:49:31;95448.81;;;7.38;100.00
1832;BME280;1680;48.106;11.708;2023-04-26T01:51:59;95438.81;;;7.29;100.00
1832;BME280;1680;48.106;11.708;2023-04-26T01:54:27;95446.47;;;7.24;100.00
1832;BME280;1680;48.106;11.708;2023-04-26T01:56:54;95435.81;;;7.19;100.00
1832;BME280;1680;48.106;11.708;2023-04-26T01:59:23;95442.22;;;7.29;100.00
1832;BME280;1680;48.106;11.708;2023-04-26T02:01:51;95447.06;;;7.26;100.00
1832;BME280;1680;48.106;11.708;2023-04-26T02:04:18;95446.84;;;7.27;100.00
1832;BME280;1680;48.106;11.708;2023-04-26T02:06:45;95455.47;;;7.28;100.00
1832;BME280;1680;48.106;11.708;2023-04-26T02:09:12;95451.69;;;7.24;100.00
1832;BME280;1680;48.106;11.708;2023-04-26T02:11:40;95451.25;;;7.20;100.00
1832;BME280;1680;48.106;11.708;2023-04-26T02:14:07;95460.44;;;7.49;100.00
1832;BME280;1680;48.106;11.708;2023-04-26T02:16:35;95395.59;;;6.82;100.00
1832;BME280;1680;48.106;11.708;2023-04-26T02:19:03;95452.88;;;7.15;100.00
1832;BME280;1680;48.106;11.708;2023-04-26T02:21:49;95456.06;;;7.30;100.00
1832;BME280;1680;48.106;11.708;2023-04-26T02:24:17;95448.88;;;7.19;100.00
1832;BME280;1680;48.106;11.708;2023-04-26T02:26:45;95451.69;;;6.98;100.00
1832;BME280;1680;48.106;11.708;2023-04-26T02:29:13;95449.69;;;6.93;100.00
1832;BME280;1680;48.106;11.708;2023-04-26T02:31:41;95417.81;;;6.78;100.00
1832;BME280;1680;48.106;11.708;2023-04-26T02:34:09;95446.91;;;6.95;100.00
1832;BME280;1680;48.106;11.708;2023-04-26T02:36:36;95445.69;;;6.91;100.00
1832;BME280;1680;48.106;11.708;2023-04-26T02:39:03;95439.66;;;6.97;100.00
1832;BME280;1680;48.106;11.708;2023-04-26T02:41:31;95440.47;;;6.91;100.00
1832;BME280;1680;48.106;11.708;2023-04-26T02:43:58;95439.09;;;6.95;100.00
1832;BME280;1680;48.106;11.708;2023-04-26T02:46:26;95439.88;;;6.89;100.00
1832;BME280;1680;48.106;11.708;2023-04-26T02:48:54;95436.06;;;6.85;100.00
1832;BME280;1680;48.106;11.708;2023-04-26T02:51:21;95442.09;;;6.79;100.00
1832;BME280;1680;48.106;11.708;2023-04-26T02:53:48;95438.88;;;6.77;100.00
1832;BME280;1680;48.106;11.708;2023-04-26T02:56:16;95428.47;;;6.64;100.00
1832;BME280;1680;48.106;11.708;2023-04-26T02:58:43;95430.88;;;6.59;100.00
1832;BME280;1680;48.106;11.708;2023-04-26T03:01:10;95434.47;;;6.58;100.00
1832;BME280;1680;48.106;11.708;2023-04-26T03:03:38;95438.91;;;6.64;100.00
1832;BME280;1680;48.106;11.708;2023-04-26T03:06:08;95435.88;;;6.67;100.00
1832;BME280;1680;48.106;11.708;2023-04-26T03:08:35;95437.47;;;6.68;100.00
1832;BME280;1680;48.106;11.708;2023-04-26T03:11:02;95440.47;;;6.52;100.00
1832;BME280;1680;48.106;11.708;2023-04-26T03:13:29;95453.31;;;6.73;100.00
1832;BME280;1680;48.106;11.708;2023-04-26T03:15:57;95441.28;;;6.72;100.00
1832;BME280;1680;48.106;11.708;2023-04-26T03:18:24;95439.28;;;6.61;100.00
1832;BME280;1680;48.106;11.708;2023-04-26T03:20:51;95446.09;;;6.62;100.00
1832;BME280;1680;48.106;11.708;2023-04-26T03:23:19;95440.50;;;6.65;100.00
1832;BME280;1680;48.106;11.708;2023-04-26T03:25:48;95447.28;;;6.60;100.00
1832;BME280;1680;48.106;11.708;2023-04-26T03:28:16;95448.88;;;6.54;100.00
1832;BME280;1680;48.106;11.708;2023-04-26T03:30:43;95444.09;;;6.64;100.00
1832;BME280;1680;48.106;11.708;2023-04-26T03:33:11;95452.09;;;6.56;100.00
1832;BME280;1680;48.106;11.708;2023-04-26T03:35:38;95450.31;;;6.50;100.00
1832;BME280;1680;48.106;11.708;2023-04-26T03:38:06;95458.13;;;6.50;100.00
1832;BME280;1680;48.106;11.708;2023-04-26T03:40:34;95458.31;;;6.49;100.00
1832;BME280;1680;48.106;11.708;2023-04-26T03:43:01;95462.75;;;6.61;100.00
1832;BME280;1680;48.106;11.708;2023-04-26T03:45:29;95464.94;;;6.51;100.00
1832;BME280;1680;48.106;11.708;2023-04-26T03:47:56;95461.13;;;6.54;100.00
1832;BME280;1680;48.106;11.708;2023-04-26T03:50:23;95456.09;;;6.52;100.00
1832;BME280;1680;48.106;11.708;2023-04-26T03:52:50;95454.53;;;6.58;100.00
1832;BME280;1680;48.106;11.708;2023-04-26T03:55:18;95450.50;;;6.55;100.00
1832;BME280;1680;48.106;11.708;2023-04-26T03:57:46;95459.53;;;6.53;100.00
1832;BME280;1680;48.106;11.708;2023-04-26T04:00:14;95469.34;;;6.57;100.00
1832;BME280;1680;48.106;11.708;2023-04-26T04:02:42;95462.13;;;6.59;100.00
1832;BME280;1680;48.106;11.708;2023-04-26T04:05:09;95457.13;;;6.64;100.00
1832;BME280;1680;48.106;11.708;2023-04-26T04:07:36;95465.34;;;6.55;100.00
1832;BME280;1680;48.106;11.708;2023-04-26T04:10:04;95470.16;;;6.58;100.00
1832;BME280;1680;48.106;11.708;2023-04-26T04:12:31;95468.56;;;6.63;100.00
1832;BME280;1680;48.106;11.708;2023-04-26T04:15:00;95476.97;;;6.59;100.00
1832;BME280;1680;48.106;11.708;2023-04-26T04:17:27;95469.53;;;6.49;100.00
1832;BME280;1680;48.106;11.708;2023-04-26T04:19:54;95469.16;;;6.59;100.00
1832;BME280;1680;48.106;11.708;2023-04-26T04:22:21;95470.94;;;6.45;100.00
1832;BME280;1680;48.106;11.708;2023-04-26T04:24:49;95474.94;;;6.41;100.00
1832;BME280;1680;48.106;11.708;2023-04-26T04:27:16;95479.13;;;6.42;100.00
1832;BME280;1680;48.106;11.708;2023-04-26T04:29:43;95471.53;;;6.47;100.00
1832;BME280;1680;48.106;11.708;2023-04-26T04:32:11;95472.53;;;6.46;100.00
1832;BME280;1680;48.106;11.708;2023-04-26T04:34:41;95484.16;;;6.50;100.00
1832;BME280;1680;48.106;11.708;2023-04-26T04:37:09;95479.75;;;6.57;100.00
1832;BME280;1680;48.106;11.708;2023-04-26T04:39:36;95484.16;;;6.50;100.00
1832;BME280;1680;48.106;11.708;2023-04-26T04:42:03;95476.53;;;6.55;100.00
1832;BME280;1680;48.106;11.708;2023-04-26T04:44:30;95494.16;;;6.53;100.00
1832;BME280;1680;48.106;11.708;2023-04-26T04:46:57;95497.59;;;6.54;100.00
1832;BME280;1680;48.106;11.708;2023-04-26T04:49:26;95507.78;;;6.36;100.00
1832;BME280;1680;48.106;11.708;2023-04-26T04:51:53;95489.94;;;6.39;100.00
1832;BME280;1680;48.106;11.708;2023-04-26T04:54:21;95494.78;;;6.55;100.00
1832;BME280;1680;48.106;11.708;2023-04-26T04:56:49;95520.22;;;6.53;100.00
1832;BME280;1680;48.106;11.708;2023-04-26T04:59:16;95503.81;;;6.53;100.00
1832;BME280;1680;48.106;11.708;2023-04-26T05:01:43;95503.22;;;6.64;100.00
1832;BME280;1680;48.106;11.708;2023-04-26T05:04:10;95498.22;;;6.62;100.00
1832;BME280;1680;48.106;11.708;2023-04-26T05:06:39;95503.59;;;6.67;100.00
1832;BME280;1680;48.106;11.708;2023-04-26T05:09:06;95514.84;;;6.68;100.00
1832;BME280;1680;48.106;11.708;2023-04-26T05:11:34;95511.41;;;6.67;100.00
1832;BME280;1680;48.106;11.708;2023-04-26T05:14:02;95504.63;;;6.66;100.00
1832;BME280;1680;48.106;11.708;2023-04-26T05:16:29;95518.28;;;6.94;100.00
1832;BME280;1680;48.106;11.708;2023-04-26T05:18:56;95527.09;;;6.93;100.00
1832;BME280;1680;48.106;11.708;2023-04-26T05:21:23;95522.28;;;6.77;100.00
1832;BME280;1680;48.106;11.708;2023-04-26T05:23:52;95522.28;;;6.83;100.00
1832;BME280;1680;48.106;11.708;2023-04-26T05:26:19;95524.06;;;6.83;100.00
1832;BME280;1680;48.106;11.708;2023-04-26T05:28:46;95523.50;;;6.87;100.00
1832;BME280;1680;48.106;11.708;2023-04-26T05:31:13;95518.69;;;6.91;100.00
1832;BME280;1680;48.106;11.708;2023-04-26T05:33:40;95528.50;;;7.02;100.00
1832;BME280;1680;48.106;11.708;2023-04-26T05:36:08;95534.09;;;7.12;100.00
1832;BME280;1680;48.106;11.708;2023-04-26T05:38:35;95539.13;;;7.07;100.00
1832;BME280;1680;48.106;11.708;2023-04-26T05:41:04;95538.94;;;7.15;100.00
1832;BME280;1680;48.106;11.708;2023-04-26T05:43:31;95539.34;;;7.25;100.00
1832;BME280;1680;48.106;11.708;2023-04-26T05:45:58;95543.53;;;7.39;100.00
1832;BME280;1680;48.106;11.708;2023-04-26T05:48:28;95545.97;;;7.21;100.00
1832;BME280;1680;48.106;11.708;2023-04-26T05:50:55;95543.13;;;7.29;100.00
1832;BME280;1680;48.106;11.708;2023-04-26T05:53:22;95544.34;;;7.26;100.00
1832;BME280;1680;48.106;11.708;2023-04-26T05:55:50;95539.31;;;7.38;100.00
1832;BME280;1680;48.106;11.708;2023-04-26T05:58:18;95544.34;;;7.33;100.00
1832;BME280;1680;48.106;11.708;2023-04-26T06:00:45;95540.53;;;7.29;100.00
1832;BME280;1680;48.106;11.708;2023-04-26T06:03:12;95539.34;;;7.25;100.00
1832;BME280;1680;48.106;11.708;2023-04-26T06:05:40;95536.53;;;7.26;100.00
1832;BME280;1680;48.106;11.708;2023-04-26T06:08:08;95548.97;;;7.24;100.00
1832;BME280;1680;48.106;11.708;2023-04-26T06:10:35;95548.34;;;7.29;100.00
1832;BME280;1680;48.106;11.708;2023-04-26T06:13:02;95560.97;;;7.45;100.00
1832;BME280;1680;48.106;11.708;2023-04-26T06:15:31;95558.34;;;7.58;100.00
1832;BME280;1680;48.106;11.708;2023-04-26T06:17:58;95558.78;;;7.61;100.00
1832;BME280;1680;48.106;11.708;2023-04-26T06:20:25;95561.56;;;7.60;100.00
1832;BME280;1680;48.106;11.708;2023-04-26T06:22:53;95566.38;;;7.63;100.00
1832;BME280;1680;48.106;11.708;2023-04-26T06:25:20;95560.56;;;7.61;100.00
1832;BME280;1680;48.106;11.708;2023-04-26T06:27:47;95556.97;;;7.49;100.00
1832;BME280;1680;48.106;11.708;2023-04-26T06:30:14;95558.94;;;7.66;100.00
1832;BME280;1680;48.106;11.708;2023-04-26T06:32:43;95562.09;;;7.87;100.00
1832;BME280;1680;48.106;11.708;2023-04-26T06:35:10;95566.78;;;7.79;100.00
1832;BME280;1680;48.106;11.708;2023-04-26T06:37:37;95563.31;;;7.91;100.00
1832;BME280;1680;48.106;11.708;2023-04-26T06:40:05;95564.50;;;7.95;100.00
1832;BME280;1680;48.106;11.708;2023-04-26T06:42:33;95561.03;;;8.14;100.00
1832;BME280;1680;48.106;11.708;2023-04-26T06:45:01;95568.69;;;8.16;100.00
1832;BME280;1680;48.106;11.708;2023-04-26T06:47:28;95571.50;;;8.14;100.00
1832;BME280;1680;48.106;11.708;2023-04-26T06:49:56;95565.88;;;8.04;100.00
1832;BME280;1680;48.106;11.708;2023-04-26T06:52:23;95565.88;;;8.04;100.00
1832;BME280;1680;48.106;11.708;2023-04-26T06:54:51;95567.69;;;8.10;100.00
1832;BME280;1680;48.106;11.708;2023-04-26T06:57:18;95563.25;;;8.04;100.00
1832;BME280;1680;48.106;11.708;2023-04-26T06:59:45;95575.09;;;8.13;100.00
1832;BME280;1680;48.106;11.708;2023-04-26T07:02:12;95574.13;;;8.08;100.00
1832;BME280;1680;48.106;11.708;2023-04-26T07:04:39;95576.31;;;8.24;100.00
1832;BME280;1680;48.106;11.708;2023-04-26T07:07:08;95575.06;;;9.32;100.00
1832;BME280;1680;48.106;11.708;2023-04-26T07:09:35;95575.28;;;9.06;100.00
1832;BME280;1680;48.106;11.708;2023-04-26T07:12:03;95578.44;;;9.08;100.00
1832;BME280;1680;48.106;11.708;2023-04-26T07:14:30;95571.88;;;8.99;100.00
1832;BME280;1680;48.106;11.708;2023-04-26T07:16:57;95569.59;;;9.09;100.00
1832;BME280;1680;48.106;11.708;2023-04-26T07:19:24;95569.00;;;9.07;100.00
1832;BME280;1680;48.106;11.708;2023-04-26T07:21:51;95572.06;;;9.04;100.00
1832;BME280;1680;48.106;11.708;2023-04-26T07:24:20;95565.47;;;8.95;100.00
1832;BME280;1680;48.106;11.708;2023-04-26T07:26:47;95568.69;;;8.97;100.00
1832;BME280;1680;48.106;11.708;2023-04-26T07:29:15;95570.28;;;8.98;100.00
1832;BME280;1680;48.106;11.708;2023-04-26T07:31:45;95585.56;;;9.01;100.00
1832;BME280;1680;48.106;11.708;2023-04-26T07:34:12;95569.19;;;9.12;100.00
1832;BME280;1680;48.106;11.708;2023-04-26T07:36:39;95559.84;;;9.22;100.00
1832;BME280;1680;48.106;11.708;2023-04-26T07:39:07;95530.22;;;9.28;100.00
1832;BME280;1680;48.106;11.708;2023-04-26T07:41:36;95565.06;;;9.71;98.71
1832;BME280;1680;48.106;11.708;2023-04-26T07:44:03;95566.28;;;9.68;98.26
1832;BME280;1680;48.106;11.708;2023-04-26T07:46:31;95566.75;;;9.83;95.60
1832;BME280;1680;48.106;11.708;2023-04-26T07:48:59;95532.84;;;9.46;95.99
1832;BME280;1680;48.106;11.708;2023-04-26T07:51:26;95565.28;;;9.87;99.25
1832;BME280;1680;48.106;11.708;2023-04-26T07:53:53;95566.41;;;9.98;95.19
1832;BME280;1680;48.106;11.708;2023-04-26T07:56:20;95573.22;;;9.81;93.21
1832;BME280;1680;48.106;11.708;2023-04-26T07:58:50;95569.75;;;9.87;96.17
1832;BME280;1680;48.106;11.708;2023-04-26T08:01:17;95569.59;;;9.82;94.94
1832;BME280;1680;48.106;11.708;2023-04-26T08:03:45;95575.81;;;10.05;93.83
1832;BME280;1680;48.106;11.708;2023-04-26T08:06:13;95567.81;;;10.18;92.98
1832;BME280;1680;48.106;11.708;2023-04-26T08:08:41;95568.91;;;10.11;90.82
1832;BME280;1680;48.106;11.708;2023-04-26T08:11:09;95561.66;;;10.42;89.77
1832;BME280;1680;48.106;11.708;2023-04-26T08:13:37;95573.81;;;10.72;85.48
1832;BME280;1680;48.106;11.708;2023-04-26T08:16:06;95567.22;;;10.81;83.92
1832;BME280;1680;48.106;11.708;2023-04-26T08:18:33;95563.22;;;10.79;82.18
1832;BME280;1680;48.106;11.708;2023-04-26T08:21:01;95567.13;;;10.59;85.66
1832;BME280;1680;48.106;11.708;2023-04-26T08:23:31;95566.09;;;10.77;84.08
1832;BME280;1680;48.106;11.708;2023-04-26T08:26:00;95570.47;;;10.95;84.42
1832;BME280;1680;48.106;11.708;2023-04-26T08:28:27;95561.44;;;10.91;80.53
1832;BME280;1680;48.106;11.708;2023-04-26T08:30:54;95560.38;;;10.51;82.21
1832;BME280;1680;48.106;11.708;2023-04-26T08:33:23;95572.56;;;10.75;84.97
1832;BME280;1680;48.106;11.708;2023-04-26T08:35:51;95563.06;;;10.74;81.49
1832;BME280;1680;48.106;11.708;2023-04-26T08:38:18;95567.97;;;10.41;75.00
1832;BME280;1680;48.106;11.708;2023-04-26T08:40:47;95559.19;;;10.47;78.15
1832;BME280;1680;48.106;11.708;2023-04-26T08:43:16;95559.84;;;10.61;82.52
1832;BME280;1680;48.106;11.708;2023-04-26T08:45:44;95562.16;;;10.98;81.37
1832;BME280;1680;48.106;11.708;2023-04-26T08:48:12;95559.47;;;11.16;82.50
1832;BME280;1680;48.106;11.708;2023-04-26T08:50:43;95549.81;;;11.51;82.68
1832;BME280;1680;48.106;11.708;2023-04-26T08:53:13;95545.50;;;11.56;77.76
1832;BME280;1680;48.106;11.708;2023-04-26T08:55:46;95553.63;;;11.66;73.46
1832;BME280;1680;48.106;11.708;2023-04-26T08:58:15;95551.84;;;11.49;75.06
1832;BME280;1680;48.106;11.708;2023-04-26T09:00:43;95555.28;;;11.38;75.04
1832;BME280;1680;48.106;11.708;2023-04-26T09:03:10;95555.88;;;11.62;73.36
1832;BME280;1680;48.106;11.708;2023-04-26T09:05:39;95552.81;;;11.65;74.03
1832;BME280;1680;48.106;11.708;2023-04-26T09:08:12;95553.94;;;11.92;70.80
1832;BME280;1680;48.106;11.708;2023-04-26T09:10:41;95548.03;;;11.85;71.34
1832;BME280;1680;48.106;11.708;2023-04-26T09:13:09;95547.22;;;11.73;69.18
1832;BME280;1680;48.106;11.708;2023-04-26T09:15:36;95557.16;;;11.60;73.16
1832;BME280;1680;48.106;11.708;2023-04-26T09:18:17;95553.47;;;11.50;72.07
1832;BME280;1680;48.106;11.708;2023-04-26T09:20:45;95554.69;;;11.36;70.53
1832;BME280;1680;48.106;11.708;2023-04-26T09:23:16;95538.66;;;11.03;72.30
1832;BME280;1680;48.106;11.708;2023-04-26T09:25:43;95547.28;;;10.92;75.89
1832;BME280;1680;48.106;11.708;2023-04-26T09:28:21;95526.69;;;11.07;79.50
1832;BME280;1680;48.106;11.708;2023-04-26T09:30:49;95544.47;;;11.46;77.09
1832;BME280;1680;48.106;11.708;2023-04-26T09:33:16;95559.75;;;11.37;73.62
1832;BME280;1680;48.106;11.708;2023-04-26T09:35:43;95546.75;;;11.54;70.57
1832;BME280;1680;48.106;11.708;2023-04-26T09:38:16;95552.66;;;11.38;72.42
1832;BME280;1680;48.106;11.708;2023-04-26T09:40:45;95553.16;;;11.17;72.85
1832;BME280;1680;48.106;11.708;2023-04-26T09:43:14;95556.38;;;11.19;75.03
1832;BME280;1680;48.106;11.708;2023-04-26T09:45:44;95550.06;;;10.97;75.06
1832;BME280;1680;48.106;11.708;2023-04-26T09:48:15;95541.09;;;11.16;75.27
1832;BME280;1680;48.106;11.708;2023-04-26T09:50:43;95547.09;;;11.46;75.67
1832;BME280;1680;48.106;11.708;2023-04-26T09:53:25;95542.28;;;11.54;73.02
1832;BME280;1680;48.106;11.708;2023-04-26T09:55:53;95551.91;;;11.71;73.93
1832;BME280;1680;48.106;11.708;2023-04-26T09:58:22;95555.56;;;11.70;73.49
1832;BME280;1680;48.106;11.708;2023-04-26T10:00:50;95560.22;;;11.91;71.55
1832;BME280;1680;48.106;11.708;2023-04-26T10:03:19;95553.41;;;11.90;71.21
1832;BME280;1680;48.106;11.708;2023-04-26T10:05:47;95551.56;;;12.02;68.34
1832;BME280;1680;48.106;11.708;2023-04-26T10:08:14;95558.41;;;12.03;69.20
1832;BME280;1680;48.106;11.708;2023-04-26T10:10:44;95551.09;;;12.05;65.17
1832;BME280;1680;48.106;11.708;2023-04-26T10:13:12;95501.97;;;11.49;65.73
1832;BME280;1680;48.106;11.708;2023-04-26T10:15:41;95541.38;;;11.94;68.51
1832;BME280;1680;48.106;11.708;2023-04-26T10:18:08;95545.78;;;12.28;70.26
1832;BME280;1680;48.106;11.708;2023-04-26T10:20:39;95526.47;;;12.34;67.98
1832;BME280;1680;48.106;11.708;2023-04-26T10:23:12;95542.59;;;12.15;65.68
1832;BME280;1680;48.106;11.708;2023-04-26T10:25:46;95542.78;;;11.74;67.16
1832;BME280;1680;48.106;11.708;2023-04-26T10:28:14;95543.34;;;11.64;66.73
1832;BME280;1680;48.106;11.708;2023-04-26T10:30:54;95550.16;;;11.43;68.85
1832;BME280;1680;48.106;11.708;2023-04-26T10:33:22;95541.06;;;11.57;68.61
1832;BME280;1680;48.106;11.708;2023-04-26T10:36:01;95540.22;;;11.33;70.12
1832;BME280;1680;48.106;11.708;2023-04-26T10:38:29;95503.34;;;11.40;70.67
1832;BME280;1680;48.106;11.708;2023-04-26T10:41:31;95530.78;;;11.78;71.64
1832;BME280;1680;48.106;11.708;2023-04-26T10:46:49;95521.44;;;12.33;67.69
1832;BME280;1680;48.106;11.708;2023-04-26T10:49:18;95522.09;;;12.40;62.83
1832;BME280;1680;48.106;11.708;2023-04-26T10:52:12;95517.38;;;12.02;61.75
1832;BME280;1680;48.106;11.708;2023-04-26T10:54:50;95516.19;;;12.21;62.02
1832;BME280;1680;48.106;11.708;2023-04-26T10:57:20;95514.34;;;12.33;66.54
1832;BME280;1680;48.106;11.708;2023-04-26T11:00:20;95507.97;;;12.57;63.63
1832;BME280;1680;48.106;11.708;2023-04-26T11:03:00;95507.16;;;12.96;65.51
1832;BME280;1680;48.106;11.708;2023-04-26T11:05:55;95392.31;;;12.62;58.86
1832;BME280;1680;48.106;11.708;2023-04-26T11:08:27;95488.00;;;13.50;59.01
1832;BME280;1680;48.106;11.708;2023-04-26T11:11:05;95486.34;;;13.27;56.39
1832;BME280;1680;48.106;11.708;2023-04-26T11:13:38;95485.13;;;13.51;57.82
1832;BME280;1680;48.106;11.708;2023-04-26T11:16:07;95474.91;;;13.55;61.20
1832;BME280;1680;48.106;11.708;2023-04-26T11:18:35;95472.25;;;13.92;60.90
1832;BME280;1680;48.106;11.708;2023-04-26T11:21:04;95467.47;;;13.89;56.16
1832;BME280;1680;48.106;11.708;2023-04-26T11:23:31;95468.66;;;13.98;53.59
1832;BME280;1680;48.106;11.708;2023-04-26T11:26:00;95473.34;;;14.13;54.15
1832;BME280;1680;48.106;11.708;2023-04-26T11:28:28;95461.53;;;14.15;56.76
1832;BME280;1680;48.106;11.708;2023-04-26T11:30:57;95451.00;;;13.99;55.06
1832;BME280;1680;48.106;11.708;2023-04-26T11:33:25;95376.03;;;13.68;54.72
1832;BME280;1680;48.106;11.708;2023-04-26T11:35:54;95458.69;;;14.43;54.37
1832;BME280;1680;48.106;11.708;2023-04-26T11:38:22;95448.13;;;14.43;55.78
1832;BME280;1680;48.106;11.708;2023-04-26T11:40:54;95440.88;;;14.55;53.01
1832;BME280;1680;48.106;11.708;2023-04-26T11:43:28;95463.03;;;14.33;55.20
1832;BME280;1680;48.106;11.708;2023-04-26T11:45:59;95448.81;;;14.12;52.29
1832;BME280;1680;48.106;11.708;2023-04-26T11:48:27;95464.22;;;14.20;55.56
1832;BME280;1680;48.106;11.708;2023-04-26T11:50:56;95471.00;;;14.16;53.44
1832;BME280;1680;48.106;11.708;2023-04-26T11:53:24;95436.00;;;13.61;53.59
1832;BME280;1680;48.106;11.708;2023-04-26T11:55:51;95459.00;;;13.87;53.93
1832;BME280;1680;48.106;11.708;2023-04-26T11:58:18;95473.38;;;13.96;52.55
1832;BME280;1680;48.106;11.708;2023-04-26T12:00:55;95470.84;;;13.85;53.11
1832;BME280;1680;48.106;11.708;2023-04-26T12:03:28;95460.00;;;13.81;51.91
1832;BME280;1680;48.106;11.708;2023-04-26T12:05:55;95427.28;;;13.40;52.71
1832;BME280;1680;48.106;11.708;2023-04-26T12:08:23;95479.06;;;13.51;54.82
1832;BME280;1680;48.106;11.708;2023-04-26T12:10:51;95472.22;;;13.33;54.20
1832;BME280;1680;48.106;11.708;2023-04-26T12:13:19;95472.19;;;13.50;53.47
1832;BME280;1680;48.106;11.708;2023-04-26T12:15:46;95446.81;;;13.44;53.88
1832;BME280;1680;48.106;11.708;2023-04-26T12:18:15;95475.94;;;13.54;54.57
1832;BME280;1680;48.106;11.708;2023-04-26T12:20:47;95466.78;;;13.40;54.27
1832;BME280;1680;48.106;11.708;2023-04-26T12:23:16;95482.41;;;13.46;54.15
1832;BME280;1680;48.106;11.708;2023-04-26T12:25:51;95477.47;;;13.50;53.52
1832;BME280;1680;48.106;11.708;2023-04-26T12:28:20;95476.34;;;13.13;53.33
1832;BME280;1680;48.106;11.708;2023-04-26T12:30:48;95476.34;;;13.13;54.53
1832;BME280;1680;48.106;11.708;2023-04-26T12:33:15;95465.28;;;13.11;53.24
1832;BME280;1680;48.106;11.708;2023-04-26T12:35:48;95435.91;;;13.19;52.59
1832;BME280;1680;48.106;11.708;2023-04-26T12:38:16;95467.44;;;13.84;51.66
1832;BME280;1680;48.106;11.708;2023-04-26T12:40:43;95465.50;;;14.01;52.36
1832;BME280;1680;48.106;11.708;2023-04-26T12:43:10;95468.44;;;14.21;51.00
1832;BME280;1680;48.106;11.708;2023-04-26T12:45:38;95455.53;;;14.46;50.53
1832;BME280;1680;48.106;11.708;2023-04-26T12:48:05;95456.75;;;14.39;51.36
1832;BME280;1680;48.106;11.708;2023-04-26T12:50:32;95459.38;;;13.96;50.89
1832;BME280;1680;48.106;11.708;2023-04-26T12:53:01;95458.72;;;13.84;50.58
1832;BME280;1680;48.106;11.708;2023-04-26T12:55:28;95461.53;;;13.99;50.70
1832;BME280;1680;48.106;11.708;2023-04-26T12:57:55;95458.69;;;13.62;49.52
1832;BME280;1680;48.106;11.708;2023-04-26T13:00:23;95455.09;;;13.52;50.59
1832;BME280;1680;48.106;11.708;2023-04-26T13:02:51;95457.75;;;13.36;51.63
1832;BME280;1680;48.106;11.708;2023-04-26T13:05:18;95464.97;;;13.61;50.54
1832;BME280;1680;48.106;11.708;2023-04-26T13:07:45;95451.25;;;13.97;50.75
1832;BME280;1680;48.106;11.708;2023-04-26T13:10:14;95443.09;;;14.20;49.82
1832;BME280;1680;48.106;11.708;2023-04-26T13:12:41;95442.13;;;14.26;50.03
1832;BME280;1680;48.106;11.708;2023-04-26T13:15:09;95436.72;;;14.16;47.82
1832;BME280;1680;48.106;11.708;2023-04-26T13:17:37;95438.09;;;14.19;48.83
1832;BME280;1680;48.106;11.708;2023-04-26T13:20:05;95437.88;;;14.73;48.06
1832;BME280;1680;48.106;11.708;2023-04-26T13:22:33;95432.53;;;14.68;47.30